Weather History for KJHW - January, 2014

Change the Weather History Date:

Thursday, January 30, 2014

  Actual Average (KBFD) Record (KBFD)
Temperature  
Mean Temperature 14 °F 22 °F  
Max Temperature 26 °F 30 °F 59 °F (2013)
Min Temperature 1 °F 14 °F -14 °F (1965)
Degree Days  
Heating Degree Days 52 38  
Month to date heating degree days 1140  
Since 1 July heating degree days 4196  
Cooling Degree Days 0 0  
Month to date cooling degree days 0  
Year to date cooling degree days 0  
Moisture  
Dew Point -1 °F    
Average Humidity 51    
Maximum Humidity 78    
Minimum Humidity 29    
Precipitation  
Precipitation 0.00 in 0.10 in 1.39 in (1969)
Month to date precipitation 3.19  
Year to date precipitation 3.19  
Sea Level Pressure  
Sea Level Pressure 30.04 in    
Wind  
Wind Speed 10 mph (South)    
Max Wind Speed 21 mph    
Max Gust Speed 26 mph    
Visibility 10 miles    
Events      
T = Trace of Precipitation, MM = Missing Value Source: NWS Daily Summary

Daily Weather History Graph

Daily Weather History Graph

Search for Another Location

Airport or City:

Trip Planner

Search our weather history database for the weather conditions in past years. The results will help you decide how hot, cold, wet, or windy it might be!

Date:

Astronomy

Jan. 30, 2014 Rise Set
Actual Time 7:32 AM EST 5:29 PM EST
Civil Twilight 7:02 AM EST 5:58 PM EST
Nautical Twilight 6:28 AM EST 6:32 PM EST
Astronomical Twilight 5:55 AM EST 7:05 PM EST
Moon 6:56 AM EST (1/30) 5:39 PM EST (1/30)
Length of Visible Light 10h 56m
Length of Day
9h 56m
Waning Crescent, 0% of the Moon is Illuminated
Jan 30
Waning Crescent
Jan 30
New
Feb 6
First Quarter
Feb 14
Full
Feb 22
Last Quarter

Hourly Weather History & Observations

Time (EST) Temp. Windchill Dew Point Humidity Pressure Visibility Wind Dir Wind Speed Gust Speed Precip Events Conditions
12:15 AM 6.8 °F -0.1 °F -4.0 °F 61% 30.16 in 10.0 mi SSW 3.5 mph - N/A   Clear
12:35 AM 5.0 °F -5.6 °F -4.0 °F 66% 30.16 in 10.0 mi SSW 5.8 mph - N/A   Clear
12:55 AM 3.2 °F -7.8 °F -5.8 °F 66% 30.16 in 10.0 mi South 5.8 mph - N/A   Clear
1:15 AM 3.2 °F -6.2 °F -5.8 °F 66% 30.16 in 10.0 mi South 4.6 mph - N/A   Clear
1:35 AM 3.2 °F -7.8 °F -4.0 °F 72% 30.16 in 10.0 mi South 5.8 mph - N/A   Clear
1:55 AM 3.2 °F -6.2 °F -5.8 °F 66% 30.16 in 10.0 mi South 4.6 mph - N/A   Clear
2:15 AM 3.2 °F -7.8 °F -5.8 °F 66% 30.15 in 10.0 mi South 5.8 mph - N/A   Clear
2:35 AM 1.4 °F -9.9 °F -5.8 °F 72% 30.15 in 10.0 mi South 5.8 mph - N/A   Clear
2:55 AM 1.4 °F -9.9 °F -5.8 °F 72% 30.15 in 10.0 mi South 5.8 mph - N/A   Clear
3:15 AM 1.4 °F -11.3 °F -5.8 °F 72% 30.15 in 10.0 mi South 6.9 mph - N/A   Clear
3:35 AM 1.4 °F -12.5 °F -5.8 °F 72% 30.15 in 10.0 mi South 8.1 mph - N/A   Clear
3:55 AM 1.4 °F -11.3 °F -4.0 °F 78% 30.14 in 10.0 mi South 6.9 mph - N/A   Clear
4:15 AM 1.4 °F -11.3 °F -4.0 °F 78% 30.14 in 10.0 mi South 6.9 mph - N/A   Clear
4:35 AM 1.4 °F -12.5 °F -4.0 °F 78% 30.14 in 10.0 mi South 8.1 mph - N/A   Clear
4:55 AM 3.2 °F -9.1 °F -4.0 °F 72% 30.14 in 10.0 mi SSW 6.9 mph - N/A   Clear
5:15 AM 3.2 °F -9.1 °F -2.2 °F 78% 30.14 in 10.0 mi South 6.9 mph - N/A   Clear
5:35 AM 3.2 °F -9.1 °F -4.0 °F 72% 30.14 in 10.0 mi South 6.9 mph - N/A   Clear
5:55 AM 3.2 °F -11.3 °F -4.0 °F 72% 30.15 in 10.0 mi South 9.2 mph - N/A   Clear
6:15 AM 3.2 °F -12.2 °F -5.8 °F 66% 30.15 in 10.0 mi South 10.4 mph - N/A   Clear
6:35 AM 3.2 °F -12.2 °F -2.2 °F 78% 30.16 in 10.0 mi SSW 10.4 mph - N/A   Clear
6:55 AM 3.2 °F -10.3 °F -2.2 °F 78% 30.17 in 10.0 mi South 8.1 mph - N/A   Clear
7:15 AM 3.2 °F -10.3 °F -4.0 °F 72% 30.17 in 10.0 mi South 8.1 mph - N/A   Clear
7:35 AM 3.2 °F -11.3 °F -4.0 °F 72% 30.17 in 10.0 mi South 9.2 mph - N/A   Clear
7:55 AM 3.2 °F -12.2 °F -2.2 °F 78% 30.18 in 10.0 mi South 10.4 mph - N/A   Clear
8:15 AM 3.2 °F -12.2 °F -2.2 °F 78% 30.18 in 10.0 mi South 10.4 mph - N/A   Clear
8:35 AM 5.0 °F -10.8 °F -2.2 °F 72% 30.17 in 10.0 mi South 11.5 mph - N/A   Clear
8:55 AM 6.8 °F -7.8 °F -0.4 °F 72% 30.17 in 10.0 mi South 10.4 mph 17.3 mph N/A   Clear
9:15 AM 8.6 °F -7.0 °F -2.2 °F 62% 30.17 in 10.0 mi South 12.7 mph 17.3 mph N/A   Clear
9:35 AM 8.6 °F -7.0 °F -0.4 °F 67% 30.16 in 10.0 mi South 12.7 mph - N/A   Clear
9:55 AM 10.4 °F -6.0 °F -0.4 °F 62% 30.16 in 10.0 mi South 15.0 mph - N/A   Clear
10:15 AM 10.4 °F -6.6 °F -0.4 °F 62% 30.16 in 10.0 mi South 16.1 mph 21.9 mph N/A   Clear
10:35 AM 12.2 °F -4.3 °F -0.4 °F 57% 30.15 in 10.0 mi South 16.1 mph 23.0 mph N/A   Clear
10:55 AM 14.0 °F -2.5 °F -0.4 °F 53% 30.15 in 10.0 mi SSW 17.3 mph 23.0 mph N/A   Clear
11:15 AM 15.8 °F 0.3 °F 1.4 °F 53% 30.14 in 10.0 mi South 16.1 mph - N/A   Clear
11:35 AM 15.8 °F 1.4 °F 1.4 °F 53% 30.14 in 10.0 mi South 13.8 mph 23.0 mph N/A   Clear
11:55 AM 17.6 °F 3.7 °F 1.4 °F 49% 30.13 in 10.0 mi SSW 13.8 mph - N/A   Clear
12:15 PM 19.4 °F 5.0 °F 1.4 °F 46% 30.11 in 10.0 mi South 16.1 mph 24.2 mph N/A   Clear
12:35 PM 19.4 °F 4.5 °F 1.4 °F 46% 30.09 in 10.0 mi SSW 17.3 mph 26.5 mph N/A   Clear
12:55 PM 21.2 °F 7.3 °F 3.2 °F 46% 30.06 in 10.0 mi South 16.1 mph 21.9 mph N/A   Clear
1:15 PM 21.2 °F 10.1 °F -0.4 °F 39% 30.05 in 10.0 mi South 10.4 mph 21.9 mph N/A   Clear
1:35 PM 21.2 °F 8.9 °F 1.4 °F 42% 30.02 in 10.0 mi South 12.7 mph 23.0 mph N/A   Clear
1:55 PM 23.0 °F 11.1 °F -0.4 °F 36% 30.02 in 10.0 mi South 12.7 mph 23.0 mph N/A   Clear
2:15 PM 24.8 °F 13.4 °F -0.4 °F 34% 30.01 in 10.0 mi South 12.7 mph 19.6 mph N/A   Clear
2:35 PM 24.8 °F 14.6 °F -0.4 °F 34% 30.01 in 10.0 mi South 10.4 mph 18.4 mph N/A   Clear
2:55 PM 24.8 °F 12.4 °F -0.4 °F 34% 30.00 in 10.0 mi South 15.0 mph 20.7 mph N/A   Clear
3:15 PM 26.6 °F 15.2 °F -0.4 °F 31% 29.98 in 10.0 mi South 13.8 mph 18.4 mph N/A   Clear
3:35 PM 26.6 °F 12.7 °F -2.2 °F 29% 29.98 in 10.0 mi South 20.7 mph 24.2 mph N/A   Clear
3:55 PM 26.6 °F 15.2 °F -2.2 °F 29% 29.97 in 10.0 mi South 13.8 mph 19.6 mph N/A   Clear
4:15 PM 26.6 °F 14.3 °F -2.2 °F 29% 29.96 in 10.0 mi South 16.1 mph 21.9 mph N/A   Clear
4:35 PM 26.6 °F 15.2 °F -2.2 °F 29% 29.95 in 10.0 mi South 13.8 mph 19.6 mph N/A   Clear
4:55 PM 26.6 °F 14.3 °F -2.2 °F 29% 29.94 in 10.0 mi South 16.1 mph 20.7 mph N/A   Clear
5:15 PM 24.8 °F 14.0 °F -2.2 °F 31% 29.93 in 10.0 mi South 11.5 mph - N/A   Clear
5:35 PM 24.8 °F 11.1 °F -0.4 °F 34% 29.92 in 10.0 mi South 18.4 mph 23.0 mph N/A   Clear
5:55 PM 24.8 °F 11.9 °F -2.2 °F 31% 29.91 in 10.0 mi South 16.1 mph 21.9 mph N/A   Clear
6:15 PM 24.8 °F 12.4 °F -2.2 °F 31% 29.91 in 10.0 mi South 15.0 mph 23.0 mph N/A   Clear
6:35 PM 24.8 °F 12.9 °F -2.2 °F 31% 29.90 in 10.0 mi South 13.8 mph 19.6 mph N/A   Clear
6:55 PM 26.6 °F 15.2 °F -2.2 °F 29% 29.88 in 10.0 mi South 13.8 mph 24.2 mph N/A   Clear
7:15 PM 26.6 °F 15.7 °F -2.2 °F 29% 29.87 in 10.0 mi South 12.7 mph 19.6 mph N/A   Scattered Clouds
7:35 PM 26.6 °F 15.7 °F -0.4 °F 31% 29.86 in 10.0 mi South 12.7 mph - N/A   Mostly Cloudy
7:55 PM 26.6 °F 14.3 °F -0.4 °F 31% 29.86 in 10.0 mi South 16.1 mph 19.6 mph N/A   Overcast
8:15 PM 26.6 °F 13.1 °F 1.4 °F 34% 29.85 in 10.0 mi South 19.6 mph 25.3 mph N/A   Overcast
8:35 PM 26.6 °F 14.3 °F 1.4 °F 34% 29.83 in 10.0 mi South 16.1 mph 24.2 mph N/A   Overcast
8:55 PM 26.6 °F 14.3 °F 1.4 °F 34% 29.82 in 10.0 mi South 16.1 mph 23.0 mph N/A   Mostly Cloudy
9:15 PM 26.6 °F 13.8 °F 1.4 °F 34% 29.81 in 10.0 mi South 17.3 mph 24.2 mph N/A   Overcast
9:35 PM 26.6 °F 13.8 °F 1.4 °F 34% 29.83 in 10.0 mi South 17.3 mph 24.2 mph N/A   Overcast
9:55 PM 26.6 °F 15.2 °F 1.4 °F 34% 29.86 in 10.0 mi SSW 13.8 mph 18.4 mph N/A   Overcast
10:15 PM 26.6 °F 15.2 °F 1.4 °F 34% 29.86 in 10.0 mi South 13.8 mph 20.7 mph N/A   Overcast
10:35 PM 26.6 °F 14.3 °F 1.4 °F 34% 29.87 in 10.0 mi SSW 16.1 mph 21.9 mph N/A   Overcast
10:55 PM 24.8 °F 14.0 °F 3.2 °F 40% 29.88 in 10.0 mi South 11.5 mph - N/A   Overcast
11:15 PM 24.8 °F 13.4 °F 3.2 °F 40% 29.87 in 10.0 mi South 12.7 mph 18.4 mph N/A   Overcast
11:35 PM 24.8 °F 14.6 °F 3.2 °F 40% 29.87 in 10.0 mi SSW 10.4 mph - N/A   Overcast
11:55 PM 24.8 °F 14.6 °F 3.2 °F 40% 29.87 in 10.0 mi South 10.4 mph - N/A   Overcast